TAF Text Data
IDs:
Format:
Raw Decoded Include METAR

Data at: 2138 UTC 02 Aug 2021

KATL 021955Z 0220/0324 33006KT P6SM SCT050 SCT120
  FM030100 34006KT P6SM -RA SCT050 BKN100
  FM030400 35004KT P6SM VCSH SCT050 OVC080
  TEMPO 0304/0308 5SM -SHRA BR BKN025
  FM030900 VRB03KT P6SM VCSH BKN025 OVC050
  FM031200 02004KT P6SM VCSH SCT015 BKN025
  FM031700 06006KT P6SM -SHRA SCT012 BKN020